Aeroporto :
LOGIN :

Iscrizione | Disclaimer

   EN    FR    IT 

 










Sommario :    VFR   VFR Marginale   IFR   IFR Intensivo   IFR Molto Intensivo
Visibilità : 
Base nubi : 
>= 8 km
>= 3000ft
5 / 8 km
1000 / 3000 ft
1500m / 5 km
500 / 1000 ft
800 / 1500m
200 / 500 ft
< 800m
< 200 ft
Simboli :   Temporali  Nebbia  Neve Forte  Precipitazioni Forti  Vento > 20 kt
SIGMETs :   Varie  Temporali  Ghiacco  Turbolenza  Onda orograficha  Ceneri Vulcaniche






- Altitudine del aeroporto : 187 ft


LPMR - Monte Real Air Base

ULTIMO METAR :
  • 051200Z 34011G23KT 300V360 9999 SCT020 FEW022CB 12/06 Q1012

METARs OBSOLETI :
  • 051100Z 33010KT 9999 SCT020 FEW022CB 11/06 Q1012
  • 051000Z VRB02KT 9999 SCT020 FEW022CB SCT040 07/07 Q1011

TAF TAF LPMR
Valido dal 05 a 12 ore il 06 a 12 ore UTC


051103Z 0512/0612 34012KT 9999 SCT020
TEMPO 0512/0520 35015G28KT 4000 SHRA BKN018 SCT020CB
TEMPO 0520/0610 6000 SHRA BKN018 FEW020TCU
TEMPO 0600/0610 VRB02KT
BECMG 0610/0612 28010KT 7000 -RA SCT012 BKN025



MetMap, La meteo Aeronautica in un colpo d'occhio ! - Copyright ORBIFLY Dicembre 2007 - Disclaimer

ORBIFLY MET'MAP TEAM :

Programmazione e sviluppo : Alexandra Zaïnal
Concezione : Baudouin d'Aumeries
Aiuto per la programmazione : Marc-Olivier Méhu
Supporto tecnico e logistico : Manuel Goepfert
Aiuto per la traduzione : Arnaldo La Scala

Contatto : metmap@orbifly.com




FONTI E CREDITI :

   NOAA